sensor_id;sensor_type;location;lat;lon;timestamp;temperature;humidity
18930;DHT22;43305;52.186;5.598;2023-10-31T00:00:39;9.90;99.90
18930;DHT22;43305;52.186;5.598;2023-10-31T00:03:06;9.90;99.90
18930;DHT22;43305;52.186;5.598;2023-10-31T00:05:33;10.00;99.90
18930;DHT22;43305;52.186;5.598;2023-10-31T00:08:01;10.00;99.90
18930;DHT22;43305;52.186;5.598;2023-10-31T00:10:29;10.00;99.90
18930;DHT22;43305;52.186;5.598;2023-10-31T00:12:56;10.00;99.90
18930;DHT22;43305;52.186;5.598;2023-10-31T00:15:23;10.00;99.90
18930;DHT22;43305;52.186;5.598;2023-10-31T00:17:50;10.00;99.90
18930;DHT22;43305;52.186;5.598;2023-10-31T00:20:17;10.00;99.90
18930;DHT22;43305;52.186;5.598;2023-10-31T00:22:45;9.90;99.90
18930;DHT22;43305;52.186;5.598;2023-10-31T00:25:13;9.90;99.90
18930;DHT22;43305;52.186;5.598;2023-10-31T00:27:40;9.90;99.90
18930;DHT22;43305;52.186;5.598;2023-10-31T00:30:07;9.90;99.90
18930;DHT22;43305;52.186;5.598;2023-10-31T00:32:34;9.90;99.90
18930;DHT22;43305;52.186;5.598;2023-10-31T00:35:01;9.80;99.90
18930;DHT22;43305;52.186;5.598;2023-10-31T00:37:29;9.80;99.90
18930;DHT22;43305;52.186;5.598;2023-10-31T00:39:56;9.80;99.90
18930;DHT22;43305;52.186;5.598;2023-10-31T00:42:24;9.80;99.90
18930;DHT22;43305;52.186;5.598;2023-10-31T00:44:51;9.70;99.90
18930;DHT22;43305;52.186;5.598;2023-10-31T00:47:18;9.70;99.90
18930;DHT22;43305;52.186;5.598;2023-10-31T00:49:45;9.70;99.90
18930;DHT22;43305;52.186;5.598;2023-10-31T00:52:11;9.70;99.90
18930;DHT22;43305;52.186;5.598;2023-10-31T00:54:38;9.70;99.90
18930;DHT22;43305;52.186;5.598;2023-10-31T00:57:05;9.70;99.90
18930;DHT22;43305;52.186;5.598;2023-10-31T00:59:33;9.60;99.90
18930;DHT22;43305;52.186;5.598;2023-10-31T01:02:00;9.60;99.90
18930;DHT22;43305;52.186;5.598;2023-10-31T01:04:27;9.60;99.90
18930;DHT22;43305;52.186;5.598;2023-10-31T01:06:54;9.70;99.90
18930;DHT22;43305;52.186;5.598;2023-10-31T01:09:21;9.70;99.90
18930;DHT22;43305;52.186;5.598;2023-10-31T01:11:48;9.60;99.90
18930;DHT22;43305;52.186;5.598;2023-10-31T01:14:15;9.60;99.90
18930;DHT22;43305;52.186;5.598;2023-10-31T01:16:43;9.60;99.90
18930;DHT22;43305;52.186;5.598;2023-10-31T01:19:10;9.60;99.90
18930;DHT22;43305;52.186;5.598;2023-10-31T01:21:36;9.60;99.90
18930;DHT22;43305;52.186;5.598;2023-10-31T01:24:04;9.60;99.90
18930;DHT22;43305;52.186;5.598;2023-10-31T01:26:31;9.60;99.90
18930;DHT22;43305;52.186;5.598;2023-10-31T01:28:58;9.60;99.90
18930;DHT22;43305;52.186;5.598;2023-10-31T01:31:24;9.60;99.90
18930;DHT22;43305;52.186;5.598;2023-10-31T01:33:53;9.70;99.90
18930;DHT22;43305;52.186;5.598;2023-10-31T01:36:24;9.70;99.90
18930;DHT22;43305;52.186;5.598;2023-10-31T01:38:51;9.70;99.90
18930;DHT22;43305;52.186;5.598;2023-10-31T01:41:19;9.70;99.90
18930;DHT22;43305;52.186;5.598;2023-10-31T01:43:46;9.70;99.90
18930;DHT22;43305;52.186;5.598;2023-10-31T01:46:11;9.70;99.90
18930;DHT22;43305;52.186;5.598;2023-10-31T01:48:38;9.70;99.90
18930;DHT22;43305;52.186;5.598;2023-10-31T01:51:07;9.70;99.90
18930;DHT22;43305;52.186;5.598;2023-10-31T01:53:34;9.70;99.90
18930;DHT22;43305;52.186;5.598;2023-10-31T01:56:03;9.80;99.90
18930;DHT22;43305;52.186;5.598;2023-10-31T01:58:32;9.80;99.90
18930;DHT22;43305;52.186;5.598;2023-10-31T02:01:00;9.80;99.90
18930;DHT22;43305;52.186;5.598;2023-10-31T02:03:27;9.80;99.90
18930;DHT22;43305;52.186;5.598;2023-10-31T02:06:03;9.80;99.90
18930;DHT22;43305;52.186;5.598;2023-10-31T02:08:32;9.80;99.90
18930;DHT22;43305;52.186;5.598;2023-10-31T02:10:59;9.80;99.90
18930;DHT22;43305;52.186;5.598;2023-10-31T02:13:26;9.70;99.90
18930;DHT22;43305;52.186;5.598;2023-10-31T02:15:53;9.70;99.90
18930;DHT22;43305;52.186;5.598;2023-10-31T02:18:20;9.70;99.90
18930;DHT22;43305;52.186;5.598;2023-10-31T02:20:48;9.70;99.90
18930;DHT22;43305;52.186;5.598;2023-10-31T02:23:17;9.70;99.90
18930;DHT22;43305;52.186;5.598;2023-10-31T02:25:43;9.70;99.90
18930;DHT22;43305;52.186;5.598;2023-10-31T02:28:10;9.80;99.90
18930;DHT22;43305;52.186;5.598;2023-10-31T02:30:37;9.80;99.90
18930;DHT22;43305;52.186;5.598;2023-10-31T02:33:04;9.80;99.90
18930;DHT22;43305;52.186;5.598;2023-10-31T02:35:31;9.80;99.90
18930;DHT22;43305;52.186;5.598;2023-10-31T02:37:58;9.90;99.90
18930;DHT22;43305;52.186;5.598;2023-10-31T02:40:33;9.90;99.90
18930;DHT22;43305;52.186;5.598;2023-10-31T02:43:00;9.90;99.90
18930;DHT22;43305;52.186;5.598;2023-10-31T02:45:28;9.90;99.90
18930;DHT22;43305;52.186;5.598;2023-10-31T02:47:56;9.90;99.90
18930;DHT22;43305;52.186;5.598;2023-10-31T02:50:22;9.90;99.90
18930;DHT22;43305;52.186;5.598;2023-10-31T02:52:49;9.90;99.90
18930;DHT22;43305;52.186;5.598;2023-10-31T02:55:16;9.90;99.90
18930;DHT22;43305;52.186;5.598;2023-10-31T02:57:44;10.00;99.90
18930;DHT22;43305;52.186;5.598;2023-10-31T03:00:12;9.90;99.90
18930;DHT22;43305;52.186;5.598;2023-10-31T03:02:38;10.00;99.90
18930;DHT22;43305;52.186;5.598;2023-10-31T03:05:06;10.00;99.90
18930;DHT22;43305;52.186;5.598;2023-10-31T03:07:33;9.90;99.90
18930;DHT22;43305;52.186;5.598;2023-10-31T03:10:00;10.00;99.90
18930;DHT22;43305;52.186;5.598;2023-10-31T03:12:27;10.00;99.90
18930;DHT22;43305;52.186;5.598;2023-10-31T03:14:56;10.00;99.90
18930;DHT22;43305;52.186;5.598;2023-10-31T03:17:22;10.00;99.90
18930;DHT22;43305;52.186;5.598;2023-10-31T03:19:51;10.00;99.90
18930;DHT22;43305;52.186;5.598;2023-10-31T03:22:17;10.00;99.90
18930;DHT22;43305;52.186;5.598;2023-10-31T03:24:44;10.00;99.90
18930;DHT22;43305;52.186;5.598;2023-10-31T03:27:11;10.00;99.90
18930;DHT22;43305;52.186;5.598;2023-10-31T03:29:38;10.10;99.90
18930;DHT22;43305;52.186;5.598;2023-10-31T03:32:06;10.10;99.90
18930;DHT22;43305;52.186;5.598;2023-10-31T03:34:34;10.10;99.90
18930;DHT22;43305;52.186;5.598;2023-10-31T03:37:00;10.10;99.90
18930;DHT22;43305;52.186;5.598;2023-10-31T03:39:27;10.10;99.90
18930;DHT22;43305;52.186;5.598;2023-10-31T03:41:56;10.10;99.90
18930;DHT22;43305;52.186;5.598;2023-10-31T03:44:23;10.10;99.90
18930;DHT22;43305;52.186;5.598;2023-10-31T03:46:50;10.10;99.90
18930;DHT22;43305;52.186;5.598;2023-10-31T03:49:18;10.10;99.90
18930;DHT22;43305;52.186;5.598;2023-10-31T03:51:45;10.10;99.90
18930;DHT22;43305;52.186;5.598;2023-10-31T03:54:12;10.10;99.90
18930;DHT22;43305;52.186;5.598;2023-10-31T03:56:39;10.10;99.90
18930;DHT22;43305;52.186;5.598;2023-10-31T03:59:06;10.10;99.90
18930;DHT22;43305;52.186;5.598;2023-10-31T04:01:33;10.00;99.90
18930;DHT22;43305;52.186;5.598;2023-10-31T04:04:00;10.10;99.90
18930;DHT22;43305;52.186;5.598;2023-10-31T04:06:28;10.10;99.90
18930;DHT22;43305;52.186;5.598;2023-10-31T04:08:56;10.00;99.90
18930;DHT22;43305;52.186;5.598;2023-10-31T04:11:22;10.00;99.90
18930;DHT22;43305;52.186;5.598;2023-10-31T04:13:49;10.00;99.90
18930;DHT22;43305;52.186;5.598;2023-10-31T04:16:16;10.00;99.90
18930;DHT22;43305;52.186;5.598;2023-10-31T04:18:43;10.10;99.90
18930;DHT22;43305;52.186;5.598;2023-10-31T04:21:10;10.10;99.90
18930;DHT22;43305;52.186;5.598;2023-10-31T04:23:38;10.10;99.90
18930;DHT22;43305;52.186;5.598;2023-10-31T04:26:05;10.10;99.90
18930;DHT22;43305;52.186;5.598;2023-10-31T04:28:33;10.10;99.90
18930;DHT22;43305;52.186;5.598;2023-10-31T04:30:59;10.10;99.90
18930;DHT22;43305;52.186;5.598;2023-10-31T04:33:26;10.10;99.90
18930;DHT22;43305;52.186;5.598;2023-10-31T04:35:53;10.10;99.90
18930;DHT22;43305;52.186;5.598;2023-10-31T04:38:20;10.10;99.90
18930;DHT22;43305;52.186;5.598;2023-10-31T04:40:48;10.10;99.90
18930;DHT22;43305;52.186;5.598;2023-10-31T04:43:15;10.10;99.90
18930;DHT22;43305;52.186;5.598;2023-10-31T04:45:41;10.10;99.90
18930;DHT22;43305;52.186;5.598;2023-10-31T04:48:09;10.10;99.90
18930;DHT22;43305;52.186;5.598;2023-10-31T04:50:35;10.10;99.90
18930;DHT22;43305;52.186;5.598;2023-10-31T04:53:02;10.10;99.90
18930;DHT22;43305;52.186;5.598;2023-10-31T04:55:29;10.10;99.90
18930;DHT22;43305;52.186;5.598;2023-10-31T04:57:57;10.10;99.90
18930;DHT22;43305;52.186;5.598;2023-10-31T05:00:24;10.00;99.90
18930;DHT22;43305;52.186;5.598;2023-10-31T05:02:54;10.00;99.90
18930;DHT22;43305;52.186;5.598;2023-10-31T05:05:23;10.00;99.90
18930;DHT22;43305;52.186;5.598;2023-10-31T05:07:50;10.00;99.90
18930;DHT22;43305;52.186;5.598;2023-10-31T05:10:17;10.00;99.90
18930;DHT22;43305;52.186;5.598;2023-10-31T05:12:43;10.00;99.90
18930;DHT22;43305;52.186;5.598;2023-10-31T05:15:12;9.90;99.90
18930;DHT22;43305;52.186;5.598;2023-10-31T05:17:39;9.90;99.90
18930;DHT22;43305;52.186;5.598;2023-10-31T05:20:06;9.90;99.90
18930;DHT22;43305;52.186;5.598;2023-10-31T05:22:34;9.90;99.90
18930;DHT22;43305;52.186;5.598;2023-10-31T05:25:01;9.90;99.90
18930;DHT22;43305;52.186;5.598;2023-10-31T05:27:30;9.90;99.90
18930;DHT22;43305;52.186;5.598;2023-10-31T05:29:56;9.90;99.90
18930;DHT22;43305;52.186;5.598;2023-10-31T05:32:27;9.80;99.90
18930;DHT22;43305;52.186;5.598;2023-10-31T05:34:54;9.80;99.90
18930;DHT22;43305;52.186;5.598;2023-10-31T05:37:21;9.80;99.90
18930;DHT22;43305;52.186;5.598;2023-10-31T05:39:48;9.80;99.90
18930;DHT22;43305;52.186;5.598;2023-10-31T05:42:15;9.80;99.90
18930;DHT22;43305;52.186;5.598;2023-10-31T05:44:42;9.80;99.90
18930;DHT22;43305;52.186;5.598;2023-10-31T05:47:09;9.80;99.90
18930;DHT22;43305;52.186;5.598;2023-10-31T05:49:38;9.80;99.90
18930;DHT22;43305;52.186;5.598;2023-10-31T05:52:05;9.80;99.90
18930;DHT22;43305;52.186;5.598;2023-10-31T05:54:32;9.80;99.90
18930;DHT22;43305;52.186;5.598;2023-10-31T05:56:59;9.70;99.90
18930;DHT22;43305;52.186;5.598;2023-10-31T05:59:26;9.70;99.90
18930;DHT22;43305;52.186;5.598;2023-10-31T06:01:53;9.70;99.90
18930;DHT22;43305;52.186;5.598;2023-10-31T06:04:20;9.70;99.90
18930;DHT22;43305;52.186;5.598;2023-10-31T06:06:48;9.70;99.90
18930;DHT22;43305;52.186;5.598;2023-10-31T06:09:15;9.70;99.90
18930;DHT22;43305;52.186;5.598;2023-10-31T06:11:42;9.60;99.90
18930;DHT22;43305;52.186;5.598;2023-10-31T06:14:10;9.60;99.90
18930;DHT22;43305;52.186;5.598;2023-10-31T06:16:40;9.60;99.90
18930;DHT22;43305;52.186;5.598;2023-10-31T06:19:07;9.60;99.90
18930;DHT22;43305;52.186;5.598;2023-10-31T06:21:33;9.60;99.90
18930;DHT22;43305;52.186;5.598;2023-10-31T06:24:01;9.60;99.90
18930;DHT22;43305;52.186;5.598;2023-10-31T06:26:29;9.60;99.90
18930;DHT22;43305;52.186;5.598;2023-10-31T06:28:56;9.60;99.90
18930;DHT22;43305;52.186;5.598;2023-10-31T06:31:23;9.60;99.90
18930;DHT22;43305;52.186;5.598;2023-10-31T06:33:50;9.60;99.90
18930;DHT22;43305;52.186;5.598;2023-10-31T06:36:17;9.60;99.90
18930;DHT22;43305;52.186;5.598;2023-10-31T06:38:43;9.60;99.90
18930;DHT22;43305;52.186;5.598;2023-10-31T06:41:12;9.60;99.90
18930;DHT22;43305;52.186;5.598;2023-10-31T06:43:38;9.60;99.90
18930;DHT22;43305;52.186;5.598;2023-10-31T06:46:05;9.60;99.90
18930;DHT22;43305;52.186;5.598;2023-10-31T06:48:32;9.60;99.90
18930;DHT22;43305;52.186;5.598;2023-10-31T06:50:59;9.60;99.90
18930;DHT22;43305;52.186;5.598;2023-10-31T06:53:26;9.60;99.90
18930;DHT22;43305;52.186;5.598;2023-10-31T06:55:53;9.60;99.90
18930;DHT22;43305;52.186;5.598;2023-10-31T06:58:21;9.60;99.90
18930;DHT22;43305;52.186;5.598;2023-10-31T07:00:48;9.60;99.90
18930;DHT22;43305;52.186;5.598;2023-10-31T07:03:15;9.70;99.90
18930;DHT22;43305;52.186;5.598;2023-10-31T07:05:42;9.60;99.90
18930;DHT22;43305;52.186;5.598;2023-10-31T07:08:09;9.60;99.90
18930;DHT22;43305;52.186;5.598;2023-10-31T07:10:35;9.60;99.90
18930;DHT22;43305;52.186;5.598;2023-10-31T07:13:02;9.70;99.90
18930;DHT22;43305;52.186;5.598;2023-10-31T07:15:30;9.70;99.90
18930;DHT22;43305;52.186;5.598;2023-10-31T07:17:57;9.60;99.90
18930;DHT22;43305;52.186;5.598;2023-10-31T07:20:24;9.60;99.90
18930;DHT22;43305;52.186;5.598;2023-10-31T07:22:51;9.70;99.90
18930;DHT22;43305;52.186;5.598;2023-10-31T07:25:18;9.70;99.90
18930;DHT22;43305;52.186;5.598;2023-10-31T07:27:45;9.70;99.90
18930;DHT22;43305;52.186;5.598;2023-10-31T07:30:12;9.70;99.90
18930;DHT22;43305;52.186;5.598;2023-10-31T07:32:41;9.70;99.90
18930;DHT22;43305;52.186;5.598;2023-10-31T07:35:08;9.80;99.90
18930;DHT22;43305;52.186;5.598;2023-10-31T07:37:35;9.80;99.90
18930;DHT22;43305;52.186;5.598;2023-10-31T07:40:02;9.80;99.90
18930;DHT22;43305;52.186;5.598;2023-10-31T07:42:29;9.90;99.90
18930;DHT22;43305;52.186;5.598;2023-10-31T07:44:56;9.90;99.90
18930;DHT22;43305;52.186;5.598;2023-10-31T07:47:26;9.90;99.90
18930;DHT22;43305;52.186;5.598;2023-10-31T07:49:54;10.00;99.90
18930;DHT22;43305;52.186;5.598;2023-10-31T07:52:21;10.10;99.90
18930;DHT22;43305;52.186;5.598;2023-10-31T07:54:48;10.10;99.90
18930;DHT22;43305;52.186;5.598;2023-10-31T07:57:15;10.20;99.90
18930;DHT22;43305;52.186;5.598;2023-10-31T07:59:41;10.20;99.90
18930;DHT22;43305;52.186;5.598;2023-10-31T08:02:08;10.30;99.90
18930;DHT22;43305;52.186;5.598;2023-10-31T08:04:35;10.30;99.90
18930;DHT22;43305;52.186;5.598;2023-10-31T08:07:04;10.30;99.90
18930;DHT22;43305;52.186;5.598;2023-10-31T08:09:30;10.40;99.90
18930;DHT22;43305;52.186;5.598;2023-10-31T08:11:57;10.30;99.90
18930;DHT22;43305;52.186;5.598;2023-10-31T08:14:26;10.30;99.90
18930;DHT22;43305;52.186;5.598;2023-10-31T08:16:53;10.30;99.90
18930;DHT22;43305;52.186;5.598;2023-10-31T08:19:20;10.30;99.90
18930;DHT22;43305;52.186;5.598;2023-10-31T08:21:47;10.30;99.90
18930;DHT22;43305;52.186;5.598;2023-10-31T08:24:15;10.40;99.90
18930;DHT22;43305;52.186;5.598;2023-10-31T08:26:42;10.50;99.90
18930;DHT22;43305;52.186;5.598;2023-10-31T08:29:08;10.60;99.90
18930;DHT22;43305;52.186;5.598;2023-10-31T08:31:35;10.70;99.90
18930;DHT22;43305;52.186;5.598;2023-10-31T08:34:02;10.70;99.90
18930;DHT22;43305;52.186;5.598;2023-10-31T08:36:29;10.70;99.90
18930;DHT22;43305;52.186;5.598;2023-10-31T08:38:56;10.80;99.90
18930;DHT22;43305;52.186;5.598;2023-10-31T08:41:24;10.70;99.90
18930;DHT22;43305;52.186;5.598;2023-10-31T08:43:51;10.70;99.90
18930;DHT22;43305;52.186;5.598;2023-10-31T08:46:18;10.70;99.90
18930;DHT22;43305;52.186;5.598;2023-10-31T08:48:45;10.70;99.90
18930;DHT22;43305;52.186;5.598;2023-10-31T08:51:12;10.70;99.90
18930;DHT22;43305;52.186;5.598;2023-10-31T08:53:39;10.90;99.90
18930;DHT22;43305;52.186;5.598;2023-10-31T08:56:06;11.00;99.90
18930;DHT22;43305;52.186;5.598;2023-10-31T08:58:35;11.10;99.90
18930;DHT22;43305;52.186;5.598;2023-10-31T09:01:02;11.20;99.90
18930;DHT22;43305;52.186;5.598;2023-10-31T09:03:31;11.40;99.90
18930;DHT22;43305;52.186;5.598;2023-10-31T09:05:59;11.60;99.90
18930;DHT22;43305;52.186;5.598;2023-10-31T09:08:26;11.80;99.90
18930;DHT22;43305;52.186;5.598;2023-10-31T09:10:53;11.80;99.90
18930;DHT22;43305;52.186;5.598;2023-10-31T09:13:20;11.90;99.90
18930;DHT22;43305;52.186;5.598;2023-10-31T09:15:48;11.90;99.90
18930;DHT22;43305;52.186;5.598;2023-10-31T09:18:15;11.90;99.90
18930;DHT22;43305;52.186;5.598;2023-10-31T09:20:42;12.00;99.90
18930;DHT22;43305;52.186;5.598;2023-10-31T09:23:09;12.00;99.90
18930;DHT22;43305;52.186;5.598;2023-10-31T09:25:36;12.00;99.90
18930;DHT22;43305;52.186;5.598;2023-10-31T09:28:03;12.10;99.90
18930;DHT22;43305;52.186;5.598;2023-10-31T09:30:30;12.10;99.90
18930;DHT22;43305;52.186;5.598;2023-10-31T09:33:01;12.20;99.90
18930;DHT22;43305;52.186;5.598;2023-10-31T09:35:28;12.30;99.90
18930;DHT22;43305;52.186;5.598;2023-10-31T09:37:57;12.30;99.90
18930;DHT22;43305;52.186;5.598;2023-10-31T09:40:24;12.30;99.90
18930;DHT22;43305;52.186;5.598;2023-10-31T09:42:53;12.30;99.90
18930;DHT22;43305;52.186;5.598;2023-10-31T09:45:20;12.40;99.90
18930;DHT22;43305;52.186;5.598;2023-10-31T09:47:47;12.40;99.90
18930;DHT22;43305;52.186;5.598;2023-10-31T09:50:15;12.60;99.90
18930;DHT22;43305;52.186;5.598;2023-10-31T09:52:42;12.70;99.90
18930;DHT22;43305;52.186;5.598;2023-10-31T09:55:09;12.90;99.90
18930;DHT22;43305;52.186;5.598;2023-10-31T09:57:37;12.90;99.90
18930;DHT22;43305;52.186;5.598;2023-10-31T10:00:05;12.90;99.90
18930;DHT22;43305;52.186;5.598;2023-10-31T10:02:32;12.90;99.90
18930;DHT22;43305;52.186;5.598;2023-10-31T10:04:59;12.80;99.90
18930;DHT22;43305;52.186;5.598;2023-10-31T10:07:28;12.80;99.90
18930;DHT22;43305;52.186;5.598;2023-10-31T10:09:56;12.80;99.90
18930;DHT22;43305;52.186;5.598;2023-10-31T10:12:24;12.90;99.90
18930;DHT22;43305;52.186;5.598;2023-10-31T10:14:52;12.90;99.90
18930;DHT22;43305;52.186;5.598;2023-10-31T10:17:22;12.90;99.90
18930;DHT22;43305;52.186;5.598;2023-10-31T10:20:05;12.90;99.90
18930;DHT22;43305;52.186;5.598;2023-10-31T10:22:36;12.90;99.90
18930;DHT22;43305;52.186;5.598;2023-10-31T10:25:05;12.90;99.90
18930;DHT22;43305;52.186;5.598;2023-10-31T10:27:32;13.00;99.90
18930;DHT22;43305;52.186;5.598;2023-10-31T10:29:59;13.00;99.90
18930;DHT22;43305;52.186;5.598;2023-10-31T10:32:33;13.20;99.90
18930;DHT22;43305;52.186;5.598;2023-10-31T10:35:00;13.20;99.90
18930;DHT22;43305;52.186;5.598;2023-10-31T10:37:27;13.10;99.90
18930;DHT22;43305;52.186;5.598;2023-10-31T10:39:58;13.10;99.90
18930;DHT22;43305;52.186;5.598;2023-10-31T10:42:32;13.20;99.90
18930;DHT22;43305;52.186;5.598;2023-10-31T10:45:02;13.30;99.90
18930;DHT22;43305;52.186;5.598;2023-10-31T10:47:31;13.40;99.90
18930;DHT22;43305;52.186;5.598;2023-10-31T10:50:00;13.50;99.90
18930;DHT22;43305;52.186;5.598;2023-10-31T10:52:30;13.60;99.90
18930;DHT22;43305;52.186;5.598;2023-10-31T10:55:11;13.70;99.90
18930;DHT22;43305;52.186;5.598;2023-10-31T10:57:42;13.80;99.90
18930;DHT22;43305;52.186;5.598;2023-10-31T11:00:12;13.90;99.90
18930;DHT22;43305;52.186;5.598;2023-10-31T11:02:40;14.00;99.90
18930;DHT22;43305;52.186;5.598;2023-10-31T11:05:08;13.90;99.90
18930;DHT22;43305;52.186;5.598;2023-10-31T11:07:37;13.80;99.90
18930;DHT22;43305;52.186;5.598;2023-10-31T11:10:06;13.70;99.90
18930;DHT22;43305;52.186;5.598;2023-10-31T11:12:33;13.50;99.90
18930;DHT22;43305;52.186;5.598;2023-10-31T11:15:01;13.50;99.90
18930;DHT22;43305;52.186;5.598;2023-10-31T11:17:31;13.40;99.90
18930;DHT22;43305;52.186;5.598;2023-10-31T11:20:00;13.40;99.90
18930;DHT22;43305;52.186;5.598;2023-10-31T11:22:37;13.40;99.90
18930;DHT22;43305;52.186;5.598;2023-10-31T11:25:07;13.40;99.90
18930;DHT22;43305;52.186;5.598;2023-10-31T11:27:34;13.50;99.90
18930;DHT22;43305;52.186;5.598;2023-10-31T11:30:05;13.60;99.90
18930;DHT22;43305;52.186;5.598;2023-10-31T11:32:33;13.60;99.90
18930;DHT22;43305;52.186;5.598;2023-10-31T11:35:00;13.80;99.90
18930;DHT22;43305;52.186;5.598;2023-10-31T11:37:32;14.10;99.90
18930;DHT22;43305;52.186;5.598;2023-10-31T11:40:18;14.20;99.90
18930;DHT22;43305;52.186;5.598;2023-10-31T11:42:48;14.20;99.90
18930;DHT22;43305;52.186;5.598;2023-10-31T11:45:26;14.30;99.90
18930;DHT22;43305;52.186;5.598;2023-10-31T11:47:54;14.40;99.90
18930;DHT22;43305;52.186;5.598;2023-10-31T11:50:22;14.50;99.90
18930;DHT22;43305;52.186;5.598;2023-10-31T11:53:02;14.40;99.90
18930;DHT22;43305;52.186;5.598;2023-10-31T11:55:33;14.30;99.90
18930;DHT22;43305;52.186;5.598;2023-10-31T11:58:16;14.30;99.90
18930;DHT22;43305;52.186;5.598;2023-10-31T12:00:43;14.20;99.90
18930;DHT22;43305;52.186;5.598;2023-10-31T12:03:11;14.20;99.90
18930;DHT22;43305;52.186;5.598;2023-10-31T12:05:37;14.10;99.90
18930;DHT22;43305;52.186;5.598;2023-10-31T12:08:05;14.00;99.90
18930;DHT22;43305;52.186;5.598;2023-10-31T12:10:33;13.90;99.90
18930;DHT22;43305;52.186;5.598;2023-10-31T12:12:59;13.70;99.90
18930;DHT22;43305;52.186;5.598;2023-10-31T12:15:26;13.70;99.90
18930;DHT22;43305;52.186;5.598;2023-10-31T12:17:58;13.60;99.90
18930;DHT22;43305;52.186;5.598;2023-10-31T12:20:25;13.50;99.90
18930;DHT22;43305;52.186;5.598;2023-10-31T12:23:02;13.50;99.90
18930;DHT22;43305;52.186;5.598;2023-10-31T12:25:29;13.30;99.90
18930;DHT22;43305;52.186;5.598;2023-10-31T12:27:59;13.20;99.90
18930;DHT22;43305;52.186;5.598;2023-10-31T12:30:32;13.20;99.90
18930;DHT22;43305;52.186;5.598;2023-10-31T12:32:59;13.10;99.90
18930;DHT22;43305;52.186;5.598;2023-10-31T12:35:27;13.00;99.90
18930;DHT22;43305;52.186;5.598;2023-10-31T12:37:54;13.10;99.90
18930;DHT22;43305;52.186;5.598;2023-10-31T12:40:22;13.00;99.90
18930;DHT22;43305;52.186;5.598;2023-10-31T12:42:50;13.00;99.90
18930;DHT22;43305;52.186;5.598;2023-10-31T12:45:19;13.00;99.90
18930;DHT22;43305;52.186;5.598;2023-10-31T12:48:00;12.90;99.90
18930;DHT22;43305;52.186;5.598;2023-10-31T12:50:28;12.80;99.90
18930;DHT22;43305;52.186;5.598;2023-10-31T12:52:55;12.80;99.90
18930;DHT22;43305;52.186;5.598;2023-10-31T12:55:24;12.80;99.90
18930;DHT22;43305;52.186;5.598;2023-10-31T12:57:52;12.60;99.90
18930;DHT22;43305;52.186;5.598;2023-10-31T13:00:22;12.60;99.90
18930;DHT22;43305;52.186;5.598;2023-10-31T13:02:51;12.60;99.90
18930;DHT22;43305;52.186;5.598;2023-10-31T13:05:19;12.50;99.90
18930;DHT22;43305;52.186;5.598;2023-10-31T13:07:56;12.50;99.90
18930;DHT22;43305;52.186;5.598;2023-10-31T13:10:26;12.50;99.90
18930;DHT22;43305;52.186;5.598;2023-10-31T13:12:54;12.50;99.90
18930;DHT22;43305;52.186;5.598;2023-10-31T13:15:24;12.50;99.90
18930;DHT22;43305;52.186;5.598;2023-10-31T13:17:51;12.60;99.90
18930;DHT22;43305;52.186;5.598;2023-10-31T13:20:20;12.70;99.90
18930;DHT22;43305;52.186;5.598;2023-10-31T13:22:47;12.70;99.90
18930;DHT22;43305;52.186;5.598;2023-10-31T13:25:15;12.70;99.90
18930;DHT22;43305;52.186;5.598;2023-10-31T13:27:43;12.70;99.90
18930;DHT22;43305;52.186;5.598;2023-10-31T13:30:11;12.70;99.90
18930;DHT22;43305;52.186;5.598;2023-10-31T13:32:40;12.70;99.90
18930;DHT22;43305;52.186;5.598;2023-10-31T13:35:07;12.70;99.90
18930;DHT22;43305;52.186;5.598;2023-10-31T13:37:34;12.60;99.90
18930;DHT22;43305;52.186;5.598;2023-10-31T13:40:01;12.60;99.90
18930;DHT22;43305;52.186;5.598;2023-10-31T13:42:29;12.60;99.90
18930;DHT22;43305;52.186;5.598;2023-10-31T13:44:56;12.60;99.90
18930;DHT22;43305;52.186;5.598;2023-10-31T13:47:23;12.60;99.90
18930;DHT22;43305;52.186;5.598;2023-10-31T13:49:51;12.60;99.90
18930;DHT22;43305;52.186;5.598;2023-10-31T13:52:18;12.60;99.90
18930;DHT22;43305;52.186;5.598;2023-10-31T13:54:45;12.60;99.90
18930;DHT22;43305;52.186;5.598;2023-10-31T13:57:12;12.60;99.90
18930;DHT22;43305;52.186;5.598;2023-10-31T13:59:40;12.60;99.90
18930;DHT22;43305;52.186;5.598;2023-10-31T14:02:07;12.50;99.90
18930;DHT22;43305;52.186;5.598;2023-10-31T14:04:34;12.60;99.90
18930;DHT22;43305;52.186;5.598;2023-10-31T14:07:03;12.60;99.90
18930;DHT22;43305;52.186;5.598;2023-10-31T14:09:30;12.60;99.90
18930;DHT22;43305;52.186;5.598;2023-10-31T14:11:57;12.60;99.90
18930;DHT22;43305;52.186;5.598;2023-10-31T14:14:23;12.50;99.90
18930;DHT22;43305;52.186;5.598;2023-10-31T14:16:50;12.50;99.90
18930;DHT22;43305;52.186;5.598;2023-10-31T14:19:17;12.40;99.90
18930;DHT22;43305;52.186;5.598;2023-10-31T14:21:44;12.50;99.90
18930;DHT22;43305;52.186;5.598;2023-10-31T14:24:12;12.50;99.90
18930;DHT22;43305;52.186;5.598;2023-10-31T14:26:39;12.50;99.90
18930;DHT22;43305;52.186;5.598;2023-10-31T14:29:08;12.60;99.90
18930;DHT22;43305;52.186;5.598;2023-10-31T14:31:40;12.50;99.90
18930;DHT22;43305;52.186;5.598;2023-10-31T14:34:07;12.50;99.90
18930;DHT22;43305;52.186;5.598;2023-10-31T14:36:34;12.40;99.90
18930;DHT22;43305;52.186;5.598;2023-10-31T14:39:01;12.40;99.90
18930;DHT22;43305;52.186;5.598;2023-10-31T14:41:29;12.40;99.90
18930;DHT22;43305;52.186;5.598;2023-10-31T14:44:02;12.40;99.90
18930;DHT22;43305;52.186;5.598;2023-10-31T14:46:32;12.30;99.90
18930;DHT22;43305;52.186;5.598;2023-10-31T14:48:59;12.30;99.90
18930;DHT22;43305;52.186;5.598;2023-10-31T14:51:31;12.30;99.90
18930;DHT22;43305;52.186;5.598;2023-10-31T14:54:01;12.30;99.90
18930;DHT22;43305;52.186;5.598;2023-10-31T14:56:29;12.30;99.90
18930;DHT22;43305;52.186;5.598;2023-10-31T14:58:57;12.30;99.90
18930;DHT22;43305;52.186;5.598;2023-10-31T15:01:24;12.30;99.90
18930;DHT22;43305;52.186;5.598;2023-10-31T15:03:51;12.30;99.90
18930;DHT22;43305;52.186;5.598;2023-10-31T15:06:18;12.30;99.90
18930;DHT22;43305;52.186;5.598;2023-10-31T15:08:45;12.20;99.90
18930;DHT22;43305;52.186;5.598;2023-10-31T15:11:12;12.20;99.90
18930;DHT22;43305;52.186;5.598;2023-10-31T15:13:40;12.20;99.90
18930;DHT22;43305;52.186;5.598;2023-10-31T15:16:07;12.20;99.90
18930;DHT22;43305;52.186;5.598;2023-10-31T15:18:34;12.10;99.90
18930;DHT22;43305;52.186;5.598;2023-10-31T15:21:01;12.00;99.90
18930;DHT22;43305;52.186;5.598;2023-10-31T15:23:30;11.90;99.90
18930;DHT22;43305;52.186;5.598;2023-10-31T15:25:58;11.90;99.90
18930;DHT22;43305;52.186;5.598;2023-10-31T15:28:26;11.80;99.90
18930;DHT22;43305;52.186;5.598;2023-10-31T15:30:54;11.70;99.90
18930;DHT22;43305;52.186;5.598;2023-10-31T15:33:22;11.70;99.90
18930;DHT22;43305;52.186;5.598;2023-10-31T15:35:48;11.60;99.90
18930;DHT22;43305;52.186;5.598;2023-10-31T15:38:15;11.60;99.90